sensor_id;sensor_type;location;lat;lon;timestamp;pressure;altitude;pressure_sealevel;temperature;humidity
34034;BME280;63481;52.588;22.472;2024-01-07T00:04:08;100383.52;;;-7.16;100.00
34034;BME280;63481;52.588;22.472;2024-01-07T00:09:11;100387.95;;;-7.21;100.00
34034;BME280;63481;52.588;22.472;2024-01-07T00:14:15;100389.94;;;-7.19;100.00
34034;BME280;63481;52.588;22.472;2024-01-07T00:19:17;100396.66;;;-7.13;100.00
34034;BME280;63481;52.588;22.472;2024-01-07T00:24:19;100405.92;;;-7.21;100.00
34034;BME280;63481;52.588;22.472;2024-01-07T00:29:21;100410.56;;;-7.14;100.00
34034;BME280;63481;52.588;22.472;2024-01-07T00:34:23;100415.21;;;-7.35;100.00
34034;BME280;63481;52.588;22.472;2024-01-07T00:39:25;100415.34;;;-7.26;100.00
34034;BME280;63481;52.588;22.472;2024-01-07T00:44:27;100418.74;;;-7.34;100.00
34034;BME280;63481;52.588;22.472;2024-01-07T00:49:29;100426.31;;;-7.33;100.00
34034;BME280;63481;52.588;22.472;2024-01-07T00:54:32;100430.84;;;-7.43;100.00
34034;BME280;63481;52.588;22.472;2024-01-07T00:59:34;100438.23;;;-7.48;100.00
34034;BME280;63481;52.588;22.472;2024-01-07T01:04:38;100443.27;;;-7.57;100.00
34034;BME280;63481;52.588;22.472;2024-01-07T01:09:41;100442.52;;;-7.62;100.00
34034;BME280;63481;52.588;22.472;2024-01-07T01:14:43;100446.44;;;-7.61;100.00
34034;BME280;63481;52.588;22.472;2024-01-07T01:19:45;100443.39;;;-7.65;100.00
34034;BME280;63481;52.588;22.472;2024-01-07T01:24:47;100446.34;;;-7.48;100.00
34034;BME280;63481;52.588;22.472;2024-01-07T01:29:50;100449.13;;;-7.60;100.00
34034;BME280;63481;52.588;22.472;2024-01-07T01:34:53;100446.05;;;-7.78;100.00
34034;BME280;63481;52.588;22.472;2024-01-07T01:39:55;100446.88;;;-7.78;100.00
34034;BME280;63481;52.588;22.472;2024-01-07T01:44:57;100448.14;;;-7.79;100.00
34034;BME280;63481;52.588;22.472;2024-01-07T01:50:03;100447.52;;;-7.74;100.00
34034;BME280;63481;52.588;22.472;2024-01-07T01:55:06;100445.96;;;-7.86;100.00
34034;BME280;63481;52.588;22.472;2024-01-07T02:00:08;100448.33;;;-7.89;100.00
34034;BME280;63481;52.588;22.472;2024-01-07T02:05:11;100451.11;;;-7.86;100.00
34034;BME280;63481;52.588;22.472;2024-01-07T02:10:15;100453.66;;;-7.82;100.00
34034;BME280;63481;52.588;22.472;2024-01-07T02:15:17;100451.08;;;-7.73;100.00
34034;BME280;63481;52.588;22.472;2024-01-07T02:20:19;100456.72;;;-7.60;100.00
34034;BME280;63481;52.588;22.472;2024-01-07T02:25:21;100457.08;;;-7.24;100.00
34034;BME280;63481;52.588;22.472;2024-01-07T02:30:23;100455.45;;;-7.14;100.00
34034;BME280;63481;52.588;22.472;2024-01-07T02:35:26;100449.00;;;-7.22;100.00
34034;BME280;63481;52.588;22.472;2024-01-07T02:40:28;100454.41;;;-7.26;100.00
34034;BME280;63481;52.588;22.472;2024-01-07T02:45:30;100449.59;;;-7.59;100.00
34034;BME280;63481;52.588;22.472;2024-01-07T02:50:32;100438.83;;;-7.61;100.00
34034;BME280;63481;52.588;22.472;2024-01-07T02:55:35;100437.73;;;-7.69;100.00
34034;BME280;63481;52.588;22.472;2024-01-07T03:00:37;100444.23;;;-7.56;100.00
34034;BME280;63481;52.588;22.472;2024-01-07T03:05:39;100447.01;;;-7.50;100.00
34034;BME280;63481;52.588;22.472;2024-01-07T03:10:41;100449.46;;;-7.57;100.00
34034;BME280;63481;52.588;22.472;2024-01-07T03:15:43;100457.39;;;-7.80;100.00
34034;BME280;63481;52.588;22.472;2024-01-07T03:20:45;100459.91;;;-7.83;100.00
34034;BME280;63481;52.588;22.472;2024-01-07T03:25:47;100456.92;;;-7.70;100.00
34034;BME280;63481;52.588;22.472;2024-01-07T03:30:50;100456.59;;;-7.76;100.00
34034;BME280;63481;52.588;22.472;2024-01-07T03:35:52;100450.79;;;-7.83;100.00
34034;BME280;63481;52.588;22.472;2024-01-07T03:40:54;100453.54;;;-7.95;100.00
34034;BME280;63481;52.588;22.472;2024-01-07T03:45:56;100449.88;;;-7.95;100.00
34034;BME280;63481;52.588;22.472;2024-01-07T03:50:58;100453.70;;;-7.86;100.00
34034;BME280;63481;52.588;22.472;2024-01-07T03:56:00;100461.57;;;-7.66;100.00
34034;BME280;63481;52.588;22.472;2024-01-07T04:01:02;100465.99;;;-7.53;100.00
34034;BME280;63481;52.588;22.472;2024-01-07T04:06:06;100462.36;;;-7.41;100.00
34034;BME280;63481;52.588;22.472;2024-01-07T04:11:09;100461.38;;;-7.48;100.00
34034;BME280;63481;52.588;22.472;2024-01-07T04:16:21;100460.55;;;-7.40;100.00
34034;BME280;63481;52.588;22.472;2024-01-07T04:21:23;100458.75;;;-7.47;100.00
34034;BME280;63481;52.588;22.472;2024-01-07T04:26:25;100463.86;;;-7.46;100.00
34034;BME280;63481;52.588;22.472;2024-01-07T04:31:27;100465.92;;;-7.43;100.00
34034;BME280;63481;52.588;22.472;2024-01-07T04:36:29;100468.48;;;-7.43;100.00
34034;BME280;63481;52.588;22.472;2024-01-07T04:41:31;100472.44;;;-7.39;100.00
34034;BME280;63481;52.588;22.472;2024-01-07T04:46:34;100473.95;;;-7.39;100.00
34034;BME280;63481;52.588;22.472;2024-01-07T04:51:37;100481.59;;;-7.36;100.00
34034;BME280;63481;52.588;22.472;2024-01-07T04:56:39;100480.53;;;-7.36;100.00
34034;BME280;63481;52.588;22.472;2024-01-07T05:01:41;100480.48;;;-7.41;100.00
34034;BME280;63481;52.588;22.472;2024-01-07T05:06:44;100481.21;;;-7.39;100.00
34034;BME280;63481;52.588;22.472;2024-01-07T05:11:47;100480.02;;;-7.39;100.00
34034;BME280;63481;52.588;22.472;2024-01-07T05:16:49;100481.75;;;-7.30;100.00
34034;BME280;63481;52.588;22.472;2024-01-07T05:21:51;100482.07;;;-7.39;100.00
34034;BME280;63481;52.588;22.472;2024-01-07T05:26:53;100484.31;;;-7.44;100.00
34034;BME280;63481;52.588;22.472;2024-01-07T05:31:55;100483.86;;;-7.43;100.00
34034;BME280;63481;52.588;22.472;2024-01-07T05:36:57;100485.13;;;-7.41;100.00
34034;BME280;63481;52.588;22.472;2024-01-07T05:41:59;100489.74;;;-7.46;100.00
34034;BME280;63481;52.588;22.472;2024-01-07T05:47:01;100492.70;;;-7.43;100.00
34034;BME280;63481;52.588;22.472;2024-01-07T05:52:03;100492.23;;;-7.47;100.00
34034;BME280;63481;52.588;22.472;2024-01-07T05:57:06;100502.35;;;-7.52;100.00
34034;BME280;63481;52.588;22.472;2024-01-07T06:02:08;100506.52;;;-7.50;100.00
34034;BME280;63481;52.588;22.472;2024-01-07T06:07:10;100503.61;;;-7.56;100.00
34034;BME280;63481;52.588;22.472;2024-01-07T06:12:12;100505.79;;;-7.61;100.00
34034;BME280;63481;52.588;22.472;2024-01-07T06:17:14;100507.74;;;-7.59;100.00
34034;BME280;63481;52.588;22.472;2024-01-07T06:22:16;100511.96;;;-7.42;100.00
34034;BME280;63481;52.588;22.472;2024-01-07T06:27:18;100519.08;;;-7.40;100.00
34034;BME280;63481;52.588;22.472;2024-01-07T06:32:20;100517.17;;;-7.36;100.00
34034;BME280;63481;52.588;22.472;2024-01-07T06:37:23;100517.30;;;-7.51;100.00
34034;BME280;63481;52.588;22.472;2024-01-07T06:42:25;100524.62;;;-7.55;100.00
34034;BME280;63481;52.588;22.472;2024-01-07T06:47:28;100538.61;;;-7.52;100.00
34034;BME280;63481;52.588;22.472;2024-01-07T06:52:30;100544.95;;;-7.58;100.00
34034;BME280;63481;52.588;22.472;2024-01-07T06:57:32;100546.88;;;-7.55;100.00
34034;BME280;63481;52.588;22.472;2024-01-07T07:02:34;100550.14;;;-7.55;100.00
34034;BME280;63481;52.588;22.472;2024-01-07T07:07:36;100552.73;;;-7.58;100.00
34034;BME280;63481;52.588;22.472;2024-01-07T07:12:38;100557.54;;;-7.51;100.00
34034;BME280;63481;52.588;22.472;2024-01-07T07:17:40;100556.20;;;-7.61;100.00
34034;BME280;63481;52.588;22.472;2024-01-07T07:22:42;100552.71;;;-7.60;100.00
34034;BME280;63481;52.588;22.472;2024-01-07T07:27:45;100554.98;;;-7.61;100.00
34034;BME280;63481;52.588;22.472;2024-01-07T07:32:47;100552.08;;;-7.65;100.00
34034;BME280;63481;52.588;22.472;2024-01-07T07:37:49;100559.11;;;-7.76;100.00
34034;BME280;63481;52.588;22.472;2024-01-07T07:42:51;100565.56;;;-7.78;100.00
34034;BME280;63481;52.588;22.472;2024-01-07T07:47:53;100574.45;;;-7.60;100.00
34034;BME280;63481;52.588;22.472;2024-01-07T07:52:55;100573.58;;;-7.63;100.00
34034;BME280;63481;52.588;22.472;2024-01-07T07:57:57;100573.67;;;-7.74;100.00
34034;BME280;63481;52.588;22.472;2024-01-07T08:02:59;100578.60;;;-7.79;100.00
34034;BME280;63481;52.588;22.472;2024-01-07T08:08:02;100580.02;;;-7.83;100.00
34034;BME280;63481;52.588;22.472;2024-01-07T08:13:04;100578.46;;;-7.80;100.00
34034;BME280;63481;52.588;22.472;2024-01-07T08:18:08;100589.45;;;-7.92;100.00
34034;BME280;63481;52.588;22.472;2024-01-07T08:23:10;100601.36;;;-7.98;100.00
34034;BME280;63481;52.588;22.472;2024-01-07T08:28:13;100606.88;;;-7.98;100.00
34034;BME280;63481;52.588;22.472;2024-01-07T08:33:15;100614.83;;;-7.76;100.00
34034;BME280;63481;52.588;22.472;2024-01-07T08:38:17;100616.45;;;-7.74;100.00
34034;BME280;63481;52.588;22.472;2024-01-07T08:43:19;100616.34;;;-7.75;100.00
34034;BME280;63481;52.588;22.472;2024-01-07T08:48:21;100611.06;;;-7.93;100.00
34034;BME280;63481;52.588;22.472;2024-01-07T08:53:23;100616.33;;;-8.11;100.00
34034;BME280;63481;52.588;22.472;2024-01-07T08:58:26;100618.05;;;-8.04;100.00
34034;BME280;63481;52.588;22.472;2024-01-07T09:03:28;100623.25;;;-7.95;100.00
34034;BME280;63481;52.588;22.472;2024-01-07T09:08:30;100630.10;;;-7.88;100.00
34034;BME280;63481;52.588;22.472;2024-01-07T09:13:33;100633.72;;;-7.58;100.00
34034;BME280;63481;52.588;22.472;2024-01-07T09:18:35;100627.68;;;-7.74;100.00
34034;BME280;63481;52.588;22.472;2024-01-07T09:23:37;100631.24;;;-7.54;100.00
34034;BME280;63481;52.588;22.472;2024-01-07T09:28:39;100633.14;;;-7.35;100.00
34034;BME280;63481;52.588;22.472;2024-01-07T09:33:42;100631.05;;;-7.29;99.83
34034;BME280;63481;52.588;22.472;2024-01-07T09:38:44;100623.89;;;-7.28;99.46
34034;BME280;63481;52.588;22.472;2024-01-07T09:43:46;100616.34;;;-7.63;99.96
34034;BME280;63481;52.588;22.472;2024-01-07T09:48:48;100614.77;;;-7.68;100.00
34034;BME280;63481;52.588;22.472;2024-01-07T09:53:54;100620.30;;;-7.81;100.00
34034;BME280;63481;52.588;22.472;2024-01-07T09:58:59;100620.02;;;-7.67;100.00
34034;BME280;63481;52.588;22.472;2024-01-07T10:04:01;100620.70;;;-7.54;100.00
34034;BME280;63481;52.588;22.472;2024-01-07T10:09:06;100622.00;;;-7.65;99.43
34034;BME280;63481;52.588;22.472;2024-01-07T10:14:08;100622.35;;;-7.81;99.14
34034;BME280;63481;52.588;22.472;2024-01-07T10:19:10;100617.11;;;-7.73;99.56
34034;BME280;63481;52.588;22.472;2024-01-07T10:24:13;100616.58;;;-7.70;99.52
34034;BME280;63481;52.588;22.472;2024-01-07T10:29:15;100617.36;;;-7.94;99.40
34034;BME280;63481;52.588;22.472;2024-01-07T10:34:20;100615.23;;;-8.13;100.00
34034;BME280;63481;52.588;22.472;2024-01-07T10:39:25;100612.40;;;-8.12;99.86
34034;BME280;63481;52.588;22.472;2024-01-07T10:44:29;100603.73;;;-8.01;99.95
34034;BME280;63481;52.588;22.472;2024-01-07T10:49:32;100601.33;;;-8.01;99.43
34034;BME280;63481;52.588;22.472;2024-01-07T10:54:39;100609.55;;;-7.77;99.39
34034;BME280;63481;52.588;22.472;2024-01-07T10:59:44;100609.77;;;-7.97;97.38
34034;BME280;63481;52.588;22.472;2024-01-07T11:10:13;100598.81;;;-8.31;97.04
34034;BME280;63481;52.588;22.472;2024-01-07T11:20:52;100602.00;;;-8.39;95.87
34034;BME280;63481;52.588;22.472;2024-01-07T11:25:56;100603.88;;;-8.23;93.84
34034;BME280;63481;52.588;22.472;2024-01-07T11:31:00;100607.84;;;-8.49;91.81
34034;BME280;63481;52.588;22.472;2024-01-07T11:36:03;100604.46;;;-8.60;91.67
34034;BME280;63481;52.588;22.472;2024-01-07T11:41:07;100609.77;;;-8.67;92.68
34034;BME280;63481;52.588;22.472;2024-01-07T11:46:11;100614.91;;;-8.53;92.97
34034;BME280;63481;52.588;22.472;2024-01-07T11:51:13;100611.55;;;-8.65;90.35
34034;BME280;63481;52.588;22.472;2024-01-07T11:56:16;100616.20;;;-8.74;90.71
34034;BME280;63481;52.588;22.472;2024-01-07T12:01:18;100610.94;;;-8.83;89.96
34034;BME280;63481;52.588;22.472;2024-01-07T12:06:21;100614.98;;;-9.06;89.31
34034;BME280;63481;52.588;22.472;2024-01-07T12:11:23;100618.80;;;-9.13;90.02
34034;BME280;63481;52.588;22.472;2024-01-07T12:16:25;100618.06;;;-9.16;90.07
34034;BME280;63481;52.588;22.472;2024-01-07T12:21:27;100622.06;;;-9.35;88.60
34034;BME280;63481;52.588;22.472;2024-01-07T12:26:31;100623.23;;;-9.52;88.52
34034;BME280;63481;52.588;22.472;2024-01-07T12:31:35;100635.78;;;-9.59;89.42
34034;BME280;63481;52.588;22.472;2024-01-07T12:36:38;100636.34;;;-9.60;88.76
34034;BME280;63481;52.588;22.472;2024-01-07T12:41:41;100639.41;;;-9.63;88.86
34034;BME280;63481;52.588;22.472;2024-01-07T12:46:43;100641.38;;;-9.69;89.82
34034;BME280;63481;52.588;22.472;2024-01-07T12:51:46;100650.20;;;-9.74;89.89
34034;BME280;63481;52.588;22.472;2024-01-07T12:56:49;100656.49;;;-10.02;89.95
34034;BME280;63481;52.588;22.472;2024-01-07T13:01:51;100661.05;;;-10.01;90.72
34034;BME280;63481;52.588;22.472;2024-01-07T13:06:54;100660.58;;;-9.87;90.43
34034;BME280;63481;52.588;22.472;2024-01-07T13:11:56;100657.89;;;-9.96;89.78
34034;BME280;63481;52.588;22.472;2024-01-07T13:16:59;100670.21;;;-9.79;90.45
34034;BME280;63481;52.588;22.472;2024-01-07T13:22:01;100668.35;;;-9.76;89.80
34034;BME280;63481;52.588;22.472;2024-01-07T13:27:04;100674.10;;;-9.82;89.50
34034;BME280;63481;52.588;22.472;2024-01-07T13:32:06;100676.91;;;-9.75;90.09
34034;BME280;63481;52.588;22.472;2024-01-07T13:37:08;100679.06;;;-10.00;89.54
34034;BME280;63481;52.588;22.472;2024-01-07T13:42:10;100679.48;;;-10.17;90.17
34034;BME280;63481;52.588;22.472;2024-01-07T13:47:13;100686.79;;;-10.31;90.34
34034;BME280;63481;52.588;22.472;2024-01-07T13:52:16;100689.72;;;-10.35;91.02
34034;BME280;63481;52.588;22.472;2024-01-07T13:57:18;100692.33;;;-10.44;91.48
34034;BME280;63481;52.588;22.472;2024-01-07T14:02:20;100699.36;;;-10.48;91.66
34034;BME280;63481;52.588;22.472;2024-01-07T14:07:24;100703.00;;;-10.53;92.13
34034;BME280;63481;52.588;22.472;2024-01-07T14:12:28;100709.14;;;-10.40;92.69
34034;BME280;63481;52.588;22.472;2024-01-07T14:17:30;100710.48;;;-10.47;92.31
34034;BME280;63481;52.588;22.472;2024-01-07T14:22:33;100722.88;;;-10.39;92.93
34034;BME280;63481;52.588;22.472;2024-01-07T14:27:35;100717.53;;;-10.43;91.77
34034;BME280;63481;52.588;22.472;2024-01-07T14:32:37;100711.91;;;-10.56;91.84
34034;BME280;63481;52.588;22.472;2024-01-07T14:37:39;100712.18;;;-10.55;92.10
34034;BME280;63481;52.588;22.472;2024-01-07T14:42:42;100717.33;;;-10.54;93.22
34034;BME280;63481;52.588;22.472;2024-01-07T14:47:45;100722.85;;;-10.68;93.40
34034;BME280;63481;52.588;22.472;2024-01-07T14:52:47;100723.14;;;-10.66;94.97
34034;BME280;63481;52.588;22.472;2024-01-07T14:57:49;100728.58;;;-10.78;94.34
34034;BME280;63481;52.588;22.472;2024-01-07T15:02:51;100734.34;;;-10.93;94.41
34034;BME280;63481;52.588;22.472;2024-01-07T15:07:54;100738.63;;;-10.94;94.46
34034;BME280;63481;52.588;22.472;2024-01-07T15:12:56;100747.59;;;-10.90;95.03
34034;BME280;63481;52.588;22.472;2024-01-07T15:17:59;100749.63;;;-10.85;95.59
34034;BME280;63481;52.588;22.472;2024-01-07T15:23:01;100748.50;;;-10.87;95.56
34034;BME280;63481;52.588;22.472;2024-01-07T15:28:04;100752.14;;;-10.97;95.81
34034;BME280;63481;52.588;22.472;2024-01-07T15:33:06;100756.03;;;-11.04;96.30
34034;BME280;63481;52.588;22.472;2024-01-07T15:38:09;100764.97;;;-11.13;96.68
34034;BME280;63481;52.588;22.472;2024-01-07T15:43:11;100770.86;;;-11.15;96.52
34034;BME280;63481;52.588;22.472;2024-01-07T15:48:14;100775.07;;;-11.17;96.44
34034;BME280;63481;52.588;22.472;2024-01-07T15:53:19;100777.86;;;-11.14;95.86
34034;BME280;63481;52.588;22.472;2024-01-07T15:58:21;100788.30;;;-11.22;96.17
34034;BME280;63481;52.588;22.472;2024-01-07T16:03:24;100794.05;;;-11.20;95.95
34034;BME280;63481;52.588;22.472;2024-01-07T16:08:27;100798.23;;;-11.17;96.88
34034;BME280;63481;52.588;22.472;2024-01-07T16:13:33;100798.91;;;-11.21;97.59
34034;BME280;63481;52.588;22.472;2024-01-07T16:18:36;100802.43;;;-11.42;97.91
34034;BME280;63481;52.588;22.472;2024-01-07T16:23:38;100811.52;;;-11.37;99.62
34034;BME280;63481;52.588;22.472;2024-01-07T16:28:41;100816.66;;;-11.46;99.77
34034;BME280;63481;52.588;22.472;2024-01-07T16:33:43;100818.05;;;-11.57;99.90
34034;BME280;63481;52.588;22.472;2024-01-07T16:38:46;100822.43;;;-11.69;100.00
34034;BME280;63481;52.588;22.472;2024-01-07T16:43:49;100828.33;;;-11.62;100.00
34034;BME280;63481;52.588;22.472;2024-01-07T16:48:51;100836.01;;;-11.75;100.00
34034;BME280;63481;52.588;22.472;2024-01-07T16:53:53;100840.45;;;-11.89;100.00
34034;BME280;63481;52.588;22.472;2024-01-07T16:58:56;100849.73;;;-11.90;100.00
34034;BME280;63481;52.588;22.472;2024-01-07T17:03:58;100854.24;;;-11.86;100.00
34034;BME280;63481;52.588;22.472;2024-01-07T17:09:01;100856.64;;;-11.86;100.00
34034;BME280;63481;52.588;22.472;2024-01-07T17:14:03;100861.99;;;-11.92;99.92
34034;BME280;63481;52.588;22.472;2024-01-07T17:19:05;100864.96;;;-11.89;99.68
34034;BME280;63481;52.588;22.472;2024-01-07T17:24:07;100873.52;;;-11.89;99.66
34034;BME280;63481;52.588;22.472;2024-01-07T17:29:10;100883.06;;;-11.92;99.39
34034;BME280;63481;52.588;22.472;2024-01-07T17:34:12;100884.98;;;-11.83;99.73
34034;BME280;63481;52.588;22.472;2024-01-07T17:39:14;100894.51;;;-11.86;98.96
34034;BME280;63481;52.588;22.472;2024-01-07T17:44:16;100897.25;;;-11.96;98.50
34034;BME280;63481;52.588;22.472;2024-01-07T17:49:19;100907.20;;;-11.86;98.66
34034;BME280;63481;52.588;22.472;2024-01-07T17:54:21;100908.13;;;-11.72;99.09
34034;BME280;63481;52.588;22.472;2024-01-07T17:59:23;100912.41;;;-11.78;98.32
34034;BME280;63481;52.588;22.472;2024-01-07T18:04:25;100915.33;;;-11.99;98.23
34034;BME280;63481;52.588;22.472;2024-01-07T18:09:31;100921.58;;;-11.80;98.84
34034;BME280;63481;52.588;22.472;2024-01-07T18:14:35;100932.02;;;-11.80;98.46
34034;BME280;63481;52.588;22.472;2024-01-07T18:19:37;100935.17;;;-11.71;98.26
34034;BME280;63481;52.588;22.472;2024-01-07T18:24:39;100942.59;;;-11.73;97.09
34034;BME280;63481;52.588;22.472;2024-01-07T18:29:44;100942.98;;;-11.85;98.21
34034;BME280;63481;52.588;22.472;2024-01-07T18:34:46;100946.91;;;-11.74;98.54
34034;BME280;63481;52.588;22.472;2024-01-07T18:39:48;100951.23;;;-11.75;97.63
34034;BME280;63481;52.588;22.472;2024-01-07T18:44:50;100957.42;;;-11.76;98.11
34034;BME280;63481;52.588;22.472;2024-01-07T18:49:52;100959.20;;;-11.68;98.01
34034;BME280;63481;52.588;22.472;2024-01-07T18:54:54;100960.27;;;-11.73;97.39
34034;BME280;63481;52.588;22.472;2024-01-07T18:59:57;100970.27;;;-11.76;97.12
34034;BME280;63481;52.588;22.472;2024-01-07T19:05:00;100975.77;;;-11.75;97.38
34034;BME280;63481;52.588;22.472;2024-01-07T19:10:02;100980.04;;;-11.75;97.44
34034;BME280;63481;52.588;22.472;2024-01-07T19:15:05;100976.08;;;-11.70;97.90
34034;BME280;63481;52.588;22.472;2024-01-07T19:20:08;100975.73;;;-11.69;96.98
34034;BME280;63481;52.588;22.472;2024-01-07T19:25:13;100981.73;;;-11.60;97.52
34034;BME280;63481;52.588;22.472;2024-01-07T19:30:17;100979.41;;;-11.62;97.64
34034;BME280;63481;52.588;22.472;2024-01-07T19:35:19;100985.92;;;-11.62;97.79
34034;BME280;63481;52.588;22.472;2024-01-07T19:40:21;100989.36;;;-11.56;97.70
34034;BME280;63481;52.588;22.472;2024-01-07T19:45:23;100989.48;;;-11.60;96.83
34034;BME280;63481;52.588;22.472;2024-01-07T19:50:29;100992.02;;;-11.69;96.43
34034;BME280;63481;52.588;22.472;2024-01-07T19:55:31;100994.86;;;-11.83;97.14
34034;BME280;63481;52.588;22.472;2024-01-07T20:00:33;100993.90;;;-11.90;97.43
34034;BME280;63481;52.588;22.472;2024-01-07T20:05:36;100995.02;;;-11.88;97.30
34034;BME280;63481;52.588;22.472;2024-01-07T20:10:38;100999.85;;;-11.89;97.22
34034;BME280;63481;52.588;22.472;2024-01-07T20:15:40;101000.80;;;-12.15;97.29
34034;BME280;63481;52.588;22.472;2024-01-07T20:20:43;101013.73;;;-12.11;98.26
34034;BME280;63481;52.588;22.472;2024-01-07T20:25:45;101019.38;;;-12.17;98.13
34034;BME280;63481;52.588;22.472;2024-01-07T20:30:49;101018.57;;;-12.13;99.07
34034;BME280;63481;52.588;22.472;2024-01-07T20:35:51;101022.13;;;-12.29;98.74
34034;BME280;63481;52.588;22.472;2024-01-07T20:40:56;101026.52;;;-12.32;99.27
34034;BME280;63481;52.588;22.472;2024-01-07T20:45:58;101037.70;;;-12.40;99.02
34034;BME280;63481;52.588;22.472;2024-01-07T20:51:01;101041.77;;;-12.38;99.33
34034;BME280;63481;52.588;22.472;2024-01-07T20:56:03;101043.00;;;-12.34;99.53
34034;BME280;63481;52.588;22.472;2024-01-07T21:01:06;101041.60;;;-12.33;99.17
34034;BME280;63481;52.588;22.472;2024-01-07T21:06:08;101041.89;;;-12.31;99.41
34034;BME280;63481;52.588;22.472;2024-01-07T21:11:11;101052.48;;;-12.19;99.67
34034;BME280;63481;52.588;22.472;2024-01-07T21:16:13;101058.16;;;-12.37;98.88
34034;BME280;63481;52.588;22.472;2024-01-07T21:21:15;101061.67;;;-12.46;98.81
34034;BME280;63481;52.588;22.472;2024-01-07T21:26:17;101060.88;;;-12.30;99.48
34034;BME280;63481;52.588;22.472;2024-01-07T21:31:20;101061.42;;;-12.32;99.74
34034;BME280;63481;52.588;22.472;2024-01-07T21:36:22;101059.02;;;-12.32;99.96
34034;BME280;63481;52.588;22.472;2024-01-07T21:41:25;101066.01;;;-12.18;99.88
34034;BME280;63481;52.588;22.472;2024-01-07T21:46:27;101072.31;;;-12.23;99.38
34034;BME280;63481;52.588;22.472;2024-01-07T21:51:29;101072.27;;;-12.27;99.09
34034;BME280;63481;52.588;22.472;2024-01-07T21:56:34;101079.70;;;-12.29;99.22
34034;BME280;63481;52.588;22.472;2024-01-07T22:01:37;101080.83;;;-12.21;99.62
34034;BME280;63481;52.588;22.472;2024-01-07T22:06:40;101084.42;;;-12.27;99.31
34034;BME280;63481;52.588;22.472;2024-01-07T22:11:42;101096.14;;;-12.23;99.45
34034;BME280;63481;52.588;22.472;2024-01-07T22:16:45;101097.47;;;-12.21;99.71
34034;BME280;63481;52.588;22.472;2024-01-07T22:21:47;101094.10;;;-12.36;99.30
34034;BME280;63481;52.588;22.472;2024-01-07T22:26:49;101099.77;;;-12.37;99.65
34034;BME280;63481;52.588;22.472;2024-01-07T22:31:51;101101.30;;;-12.49;99.29
34034;BME280;63481;52.588;22.472;2024-01-07T22:36:53;101105.96;;;-12.38;99.66
34034;BME280;63481;52.588;22.472;2024-01-07T22:41:55;101110.22;;;-12.43;99.75
34034;BME280;63481;52.588;22.472;2024-01-07T22:46:57;101108.42;;;-12.59;100.00
34034;BME280;63481;52.588;22.472;2024-01-07T22:51:59;101117.33;;;-12.52;100.00
34034;BME280;63481;52.588;22.472;2024-01-07T22:57:02;101124.56;;;-12.74;100.00
34034;BME280;63481;52.588;22.472;2024-01-07T23:02:04;101126.29;;;-12.74;100.00
34034;BME280;63481;52.588;22.472;2024-01-07T23:07:06;101128.71;;;-12.69;100.00
34034;BME280;63481;52.588;22.472;2024-01-07T23:12:08;101133.05;;;-12.65;100.00
34034;BME280;63481;52.588;22.472;2024-01-07T23:17:10;101129.68;;;-12.67;100.00
34034;BME280;63481;52.588;22.472;2024-01-07T23:22:12;101135.88;;;-12.61;100.00
34034;BME280;63481;52.588;22.472;2024-01-07T23:27:14;101141.55;;;-12.62;100.00
34034;BME280;63481;52.588;22.472;2024-01-07T23:32:16;101149.32;;;-12.65;100.00
34034;BME280;63481;52.588;22.472;2024-01-07T23:37:19;101156.83;;;-12.57;100.00
34034;BME280;63481;52.588;22.472;2024-01-07T23:42:21;101165.70;;;-12.62;100.00
34034;BME280;63481;52.588;22.472;2024-01-07T23:47:23;101168.09;;;-12.42;100.00
34034;BME280;63481;52.588;22.472;2024-01-07T23:52:25;101175.80;;;-12.36;100.00
34034;BME280;63481;52.588;22.472;2024-01-07T23:57:27;101176.79;;;-12.54;100.00
